Time;durP1;ratioP1;P1;durP2;ratioP2;P2;SDS_P1;SDS_P2;PMS_P1;PMS_P2;Temp;Humidity;BMP_temperature;BMP_pressure;BME280_temperature;BME280_humidity;BME280_pressure;Samples;Min_cycle;Max_cycle;Signal;HPM_P1;HPM_P2
2023/03/20 00:01:20;;;;;;;0.68;0.68;;;15.20;51.40;;;;;;5064706;28;45242;-68
2023/03/20 00:03:47;;;;;;;0.50;0.50;;;15.20;51.40;;;;;;5064479;28;45742;-67
2023/03/20 00:06:17;;;;;;;0.60;0.60;;;15.20;51.40;;;;;;5064488;28;45438;-67
2023/03/20 00:08:45;;;;;;;0.60;0.60;;;15.20;51.40;;;;;;5064962;28;45195;-67
2023/03/20 00:11:25;;;;;;;0.60;0.60;;;15.20;51.40;;;;;;5064620;28;45368;-67
2023/03/20 00:13:52;;;;;;;1.27;0.60;;;15.10;51.50;;;;;;5064307;28;45837;-67
2023/03/20 00:16:18;;;;;;;0.40;0.40;;;15.10;51.50;;;;;;5067735;28;45375;-67
2023/03/20 00:18:45;;;;;;;0.47;0.47;;;15.10;51.50;;;;;;5067970;28;45288;-67
2023/03/20 00:21:14;;;;;;;0.73;0.60;;;15.10;51.50;;;;;;5068020;28;45399;-67
2023/03/20 00:23:42;;;;;;;0.57;0.55;;;15.10;51.40;;;;;;5067549;28;45572;-67
2023/03/20 00:26:09;;;;;;;0.40;0.40;;;15.10;51.40;;;;;;5067733;28;45295;-67
2023/03/20 00:28:39;;;;;;;0.60;0.50;;;15.10;51.50;;;;;;5067817;28;45198;-67
2023/03/20 00:31:10;;;;;;;0.52;0.52;;;15.10;51.40;;;;;;5067965;28;45367;-67
2023/03/20 00:33:37;;;;;;;0.50;0.50;;;15.10;51.50;;;;;;5067640;28;45286;-67
2023/03/20 00:36:05;;;;;;;0.63;0.63;;;15.10;51.40;;;;;;5067574;28;45407;-67
2023/03/20 00:38:32;;;;;;;1.27;0.75;;;15.10;51.40;;;;;;5067939;28;45356;-67
2023/03/20 00:41:00;;;;;;;0.60;0.60;;;15.10;51.40;;;;;;5067682;28;45285;-67
2023/03/20 00:43:27;;;;;;;0.73;0.60;;;15.10;51.40;;;;;;5067395;28;46395;-67
2023/03/20 00:45:54;;;;;;;0.88;0.68;;;15.10;51.30;;;;;;5067641;28;45461;-67
2023/03/20 00:48:21;;;;;;;0.70;0.63;;;15.10;51.30;;;;;;5067794;28;45313;-67
2023/03/20 00:50:48;;;;;;;0.40;0.40;;;15.10;51.40;;;;;;5067583;28;45416;-67
2023/03/20 00:53:15;;;;;;;0.50;0.50;;;15.10;51.40;;;;;;5067385;28;46717;-67
2023/03/20 00:55:42;;;;;;;0.60;0.60;;;15.10;51.40;;;;;;5067485;28;45312;-67
2023/03/20 00:58:10;;;;;;;0.50;0.50;;;15.10;51.40;;;;;;5067382;28;45409;-67
2023/03/20 01:00:41;;;;;;;0.60;0.60;;;15.10;51.40;;;;;;5067338;28;45401;-67
2023/03/20 01:03:14;;;;;;;0.57;0.57;;;15.10;51.40;;;;;;5067074;28;45216;-67
2023/03/20 01:05:41;;;;;;;0.47;0.47;;;15.10;51.40;;;;;;5067397;28;45232;-67
2023/03/20 01:08:13;;;;;;;0.55;0.55;;;15.10;51.40;;;;;;5067255;28;45270;-67
2023/03/20 01:10:40;;;;;;;0.40;0.40;;;15.10;51.50;;;;;;5067564;28;45211;-67
2023/03/20 01:13:13;;;;;;;0.50;0.50;;;15.10;51.50;;;;;;5066904;28;45242;-67
2023/03/20 01:15:40;;;;;;;0.50;0.50;;;15.10;51.40;;;;;;5067260;28;45338;-68
2023/03/20 01:18:08;;;;;;;0.85;0.43;;;15.00;51.40;;;;;;5067039;28;45249;-67
2023/03/20 01:20:35;;;;;;;0.50;0.50;;;15.00;51.40;;;;;;5066992;28;45456;-67
2023/03/20 01:23:02;;;;;;;0.50;0.50;;;15.00;51.40;;;;;;5066798;28;46340;-67
2023/03/20 01:25:29;;;;;;;0.47;0.47;;;15.00;51.40;;;;;;5066101;28;45308;-67
2023/03/20 01:27:56;;;;;;;0.55;0.47;;;15.00;51.40;;;;;;5066908;28;45335;-67
2023/03/20 01:30:26;;;;;;;0.88;0.63;;;15.00;51.40;;;;;;5067208;28;45364;-67
2023/03/20 01:32:53;;;;;;;0.57;0.57;;;15.00;51.40;;;;;;5066555;28;46388;-67
2023/03/20 01:35:21;;;;;;;0.45;0.40;;;15.00;51.40;;;;;;5066669;28;45329;-67
2023/03/20 01:37:48;;;;;;;0.50;0.50;;;15.00;51.40;;;;;;5066742;28;45282;-67
2023/03/20 01:40:33;;;;;;;0.60;0.40;;;15.00;51.40;;;;;;5066806;28;45376;-67
2023/03/20 01:43:02;;;;;;;1.52;0.50;;;15.00;51.40;;;;;;5066153;28;45431;-66
2023/03/20 01:45:32;;;;;;;0.30;0.30;;;15.00;51.40;;;;;;5066449;28;45399;-67
2023/03/20 01:47:59;;;;;;;0.50;0.50;;;15.00;51.40;;;;;;5066706;28;45261;-67
2023/03/20 01:50:28;;;;;;;0.75;0.35;;;15.00;51.40;;;;;;5066729;28;45497;-67
2023/03/20 01:52:59;;;;;;;0.73;0.60;;;15.00;51.40;;;;;;5066137;28;46738;-67
2023/03/20 01:55:26;;;;;;;0.40;0.40;;;15.00;51.50;;;;;;5066480;28;45388;-67
2023/03/20 01:57:53;;;;;;;0.50;0.40;;;15.00;51.40;;;;;;5066832;27;45329;-67
2023/03/20 02:00:22;;;;;;;0.50;0.50;;;15.00;51.40;;;;;;5066562;28;45505;-66
2023/03/20 02:02:50;;;;;;;0.88;0.60;;;14.90;52.00;;;;;;5066110;28;46946;-66
2023/03/20 02:05:19;;;;;;;0.35;0.35;;;14.90;51.50;;;;;;5066239;28;45310;-66
2023/03/20 02:07:46;;;;;;;0.50;0.50;;;14.90;51.50;;;;;;5066302;28;45254;-66
2023/03/20 02:10:15;;;;;;;0.40;0.40;;;14.90;51.50;;;;;;5066359;28;45649;-66
2023/03/20 02:12:42;;;;;;;0.40;0.40;;;14.90;51.50;;;;;;5066152;28;45488;-66
2023/03/20 02:15:09;;;;;;;0.73;0.60;;;14.90;51.50;;;;;;5066021;28;45335;-66
2023/03/20 02:17:36;;;;;;;0.68;0.43;;;14.90;51.50;;;;;;5066415;28;45176;-66
2023/03/20 02:20:10;;;;;;;0.40;0.40;;;14.90;51.50;;;;;;5066200;28;45323;-66
2023/03/20 02:22:59;;;;;;;0.30;0.30;;;14.90;51.50;;;;;;5065706;28;45551;-66
2023/03/20 02:26:05;;;;;;;0.32;0.32;;;14.90;51.50;;;;;;5035657;28;45472;-66
2023/03/20 02:29:09;;;;;;;0.60;0.60;;;14.90;51.50;;;;;;5040144;28;45377;-66
2023/03/20 02:32:23;;;;;;;0.52;0.40;;;14.90;51.50;;;;;;5066175;28;45451;-67
2023/03/20 02:35:11;;;;;;;0.45;0.45;;;14.80;51.50;;;;;;5018884;28;45551;-67
2023/03/20 02:37:52;;;;;;;0.47;0.40;;;14.80;51.50;;;;;;5064506;28;45372;-68
2023/03/20 02:40:24;;;;;;;0.55;0.55;;;14.80;51.50;;;;;;5065841;28;45245;-66
2023/03/20 02:42:53;;;;;;;0.40;0.40;;;14.80;51.60;;;;;;5065861;28;45378;-66
2023/03/20 02:45:22;;;;;;;0.28;0.28;;;14.80;51.60;;;;;;5065599;28;46416;-65
2023/03/20 02:47:51;;;;;;;0.40;0.40;;;14.80;51.60;;;;;;5065635;28;45418;-66
2023/03/20 02:50:19;;;;;;;0.43;0.43;;;14.80;51.60;;;;;;5065685;28;45260;-66
2023/03/20 02:52:49;;;;;;;0.47;0.47;;;14.80;51.60;;;;;;5065722;28;45412;-66
2023/03/20 02:55:18;;;;;;;0.30;0.30;;;14.80;51.50;;;;;;5065472;28;45485;-65
2023/03/20 02:57:50;;;;;;;0.50;0.50;;;14.80;51.60;;;;;;5065476;28;45318;-66
2023/03/20 03:00:22;;;;;;;0.40;0.40;;;14.80;51.60;;;;;;5065358;28;45322;-66
2023/03/20 03:02:51;;;;;;;0.50;0.50;;;14.80;51.60;;;;;;5065578;28;45225;-65
2023/03/20 03:05:21;;;;;;;0.60;0.60;;;14.70;51.60;;;;;;5065249;28;45266;-65
2023/03/20 03:07:50;;;;;;;0.40;0.40;;;14.70;51.60;;;;;;5065317;28;45338;-65
2023/03/20 03:10:19;;;;;;;0.50;0.50;;;14.70;51.60;;;;;;5065515;28;45185;-65
2023/03/20 03:12:47;;;;;;;0.32;0.32;;;14.70;51.60;;;;;;5065436;28;45322;-65
2023/03/20 03:15:15;;;;;;;0.35;0.35;;;14.70;51.50;;;;;;5065029;28;45705;-65
2023/03/20 03:17:43;;;;;;;0.50;0.50;;;14.70;51.60;;;;;;5065165;28;45249;-66
2023/03/20 03:20:16;;;;;;;0.45;0.45;;;14.70;51.60;;;;;;5065233;28;45337;-66
2023/03/20 03:22:43;;;;;;;0.45;0.45;;;14.70;51.60;;;;;;5065261;28;45257;-66
2023/03/20 03:25:12;;;;;;;0.30;0.30;;;14.70;51.60;;;;;;5064787;28;45739;-66
2023/03/20 03:27:41;;;;;;;0.50;0.40;;;14.70;51.60;;;;;;5065165;28;45289;-66
2023/03/20 03:30:10;;;;;;;0.40;0.40;;;14.70;51.70;;;;;;5065306;28;45346;-66
2023/03/20 03:32:49;;;;;;;0.57;0.40;;;14.70;51.60;;;;;;5065149;28;45625;-66
2023/03/20 03:35:17;;;;;;;0.40;0.40;;;14.70;51.70;;;;;;5064802;28;46397;-67
2023/03/20 03:37:48;;;;;;;0.40;0.40;;;14.70;51.60;;;;;;5064896;28;45151;-67
2023/03/20 03:40:23;;;;;;;0.30;0.30;;;14.70;51.70;;;;;;5065026;28;45276;-66
2023/03/20 03:42:54;;;;;;;0.38;0.38;;;14.70;51.70;;;;;;5065035;28;45384;-66
2023/03/20 03:45:23;;;;;;;0.50;0.50;;;14.70;51.70;;;;;;5064666;27;46494;-66
2023/03/20 03:47:52;;;;;;;0.50;0.50;;;14.60;51.60;;;;;;5064734;28;45346;-66
2023/03/20 03:50:21;;;;;;;0.50;0.50;;;14.70;51.80;;;;;;5068498;28;45315;-66
2023/03/20 03:52:49;;;;;;;0.60;0.47;;;14.60;51.60;;;;;;5068485;28;45431;-66
2023/03/20 03:55:18;;;;;;;0.40;0.40;;;14.60;51.60;;;;;;5068588;28;45636;-66
2023/03/20 03:57:49;;;;;;;0.38;0.38;;;14.60;51.70;;;;;;5068291;28;45215;-67
2023/03/20 04:00:18;;;;;;;0.47;0.47;;;14.60;51.60;;;;;;5068335;28;45277;-66
2023/03/20 04:02:46;;;;;;;0.50;0.40;;;14.60;51.70;;;;;;5068691;28;45173;-66
2023/03/20 04:05:13;;;;;;;0.35;0.30;;;14.60;51.70;;;;;;5068074;28;45347;-66
2023/03/20 04:07:40;;;;;;;0.70;0.70;;;14.60;51.70;;;;;;5068184;28;45337;-66
2023/03/20 04:10:08;;;;;;;0.73;0.70;;;14.60;51.70;;;;;;5068150;28;45185;-66
2023/03/20 04:12:37;;;;;;;0.40;0.40;;;14.60;51.60;;;;;;5068309;28;45176;-66
2023/03/20 04:15:07;;;;;;;0.43;0.43;;;14.60;51.70;;;;;;5067940;28;45308;-67
2023/03/20 04:17:34;;;;;;;0.35;0.35;;;14.60;51.70;;;;;;5068054;28;45325;-66
2023/03/20 04:20:00;;;;;;;0.40;0.40;;;14.60;51.70;;;;;;5068102;28;45261;-66
2023/03/20 04:22:27;;;;;;;0.50;0.50;;;14.60;51.70;;;;;;5067845;28;45515;-66
2023/03/20 04:24:54;;;;;;;0.30;0.30;;;14.60;51.70;;;;;;5067575;28;47624;-65
2023/03/20 04:27:21;;;;;;;0.40;0.40;;;14.50;51.60;;;;;;5067883;28;45252;-66
2023/03/20 04:29:48;;;;;;;0.50;0.50;;;14.50;51.60;;;;;;5067842;28;45263;-66
2023/03/20 04:32:16;;;;;;;0.47;0.40;;;14.50;51.70;;;;;;5067889;28;45295;-68
2023/03/20 04:34:43;;;;;;;0.40;0.40;;;14.50;51.70;;;;;;5067819;28;45355;-66
2023/03/20 04:37:10;;;;;;;0.57;0.57;;;14.50;51.70;;;;;;5067563;28;45301;-66
2023/03/20 04:39:37;;;;;;;0.60;0.47;;;14.50;51.70;;;;;;5067754;28;45248;-66
2023/03/20 04:42:04;;;;;;;0.25;0.25;;;14.50;51.60;;;;;;5067658;28;45349;-66
2023/03/20 04:44:31;;;;;;;0.40;0.40;;;14.50;51.70;;;;;;5067482;28;46369;-67
2023/03/20 04:46:58;;;;;;;0.50;0.50;;;14.50;51.70;;;;;;5067718;28;45472;-66
2023/03/20 04:49:26;;;;;;;0.40;0.40;;;14.50;51.70;;;;;;5067784;28;45337;-66
2023/03/20 04:51:53;;;;;;;0.60;0.60;;;14.50;51.70;;;;;;5067573;28;45553;-66
2023/03/20 04:54:20;;;;;;;0.50;0.50;;;14.50;51.70;;;;;;5067551;28;46501;-66
2023/03/20 04:56:46;;;;;;;0.30;0.30;;;14.50;51.70;;;;;;5067364;28;45300;-67
2023/03/20 04:59:14;;;;;;;0.40;0.40;;;14.50;51.70;;;;;;5067335;28;45329;-66
2023/03/20 05:01:40;;;;;;;0.30;0.30;;;14.50;51.70;;;;;;5066498;28;45367;-66
2023/03/20 05:04:07;;;;;;;1.60;0.50;;;14.50;51.70;;;;;;5067008;28;45427;-67
2023/03/20 05:06:35;;;;;;;0.57;0.50;;;14.50;51.70;;;;;;5067225;28;45190;-65
2023/03/20 05:09:02;;;;;;;0.40;0.40;;;14.50;51.70;;;;;;5067308;28;45393;-66
2023/03/20 05:11:29;;;;;;;0.50;0.50;;;14.50;51.70;;;;;;5067211;28;45395;-66
2023/03/20 05:13:56;;;;;;;0.40;0.40;;;14.50;51.80;;;;;;5067063;28;46629;-65
2023/03/20 05:16:23;;;;;;;0.38;0.38;;;14.50;51.80;;;;;;5066996;28;45233;-66
2023/03/20 05:18:50;;;;;;;0.40;0.40;;;14.50;51.80;;;;;;5067098;28;45324;-66
2023/03/20 05:21:20;;;;;;;0.40;0.40;;;14.50;51.80;;;;;;5067074;28;45406;-66
2023/03/20 05:23:48;;;;;;;0.70;0.50;;;14.50;51.80;;;;;;5066783;28;45474;-66
2023/03/20 05:26:15;;;;;;;0.50;0.40;;;14.50;51.80;;;;;;5066709;28;46661;-66
2023/03/20 05:28:41;;;;;;;0.50;0.50;;;14.50;51.80;;;;;;5067009;28;45243;-66
2023/03/20 05:31:08;;;;;;;0.57;0.57;;;14.40;51.80;;;;;;5066936;28;45583;-66
2023/03/20 05:33:38;;;;;;;0.65;0.38;;;14.40;51.80;;;;;;5066677;28;45325;-65
2023/03/20 05:36:06;;;;;;;0.43;0.43;;;14.40;51.80;;;;;;5066661;28;45264;-66
2023/03/20 05:38:33;;;;;;;0.40;0.40;;;14.40;51.80;;;;;;5066853;28;45367;-67
2023/03/20 05:41:01;;;;;;;0.50;0.50;;;14.40;51.80;;;;;;5066752;28;45313;-66
2023/03/20 05:43:29;;;;;;;0.50;0.45;;;14.40;51.80;;;;;;5066580;28;46361;-67
2023/03/20 05:45:55;;;;;;;0.40;0.40;;;14.40;51.80;;;;;;5066432;28;45217;-66
2023/03/20 05:48:22;;;;;;;0.43;0.43;;;14.40;51.80;;;;;;5066753;28;45356;-67
2023/03/20 05:50:49;;;;;;;0.47;0.47;;;14.40;51.80;;;;;;5066730;28;45233;-66
2023/03/20 05:53:16;;;;;;;0.47;0.47;;;14.40;51.90;;;;;;5066219;28;45662;-67
2023/03/20 05:55:43;;;;;;;0.57;0.57;;;14.40;51.90;;;;;;5066378;28;45327;-67
2023/03/20 05:58:11;;;;;;;0.50;0.50;;;14.40;51.90;;;;;;5066528;28;45253;-67
2023/03/20 06:00:38;;;;;;;0.40;0.40;;;14.40;51.90;;;;;;5066571;28;45280;-67
2023/03/20 06:03:06;;;;;;;0.65;0.50;;;14.40;51.80;;;;;;5066000;28;46621;-67
2023/03/20 06:05:33;;;;;;;0.40;0.40;;;14.40;51.80;;;;;;5066180;28;45348;-68
2023/03/20 06:08:00;;;;;;;0.55;0.55;;;14.40;51.90;;;;;;5066403;28;45292;-67
2023/03/20 06:10:28;;;;;;;0.47;0.47;;;14.40;51.80;;;;;;5066505;28;45201;-67
2023/03/20 06:12:56;;;;;;;0.50;0.50;;;14.40;51.90;;;;;;5065898;28;45325;-68
2023/03/20 06:15:24;;;;;;;0.50;0.50;;;14.40;51.90;;;;;;5066105;28;45376;-67
2023/03/20 06:17:50;;;;;;;0.43;0.43;;;14.40;51.90;;;;;;5066420;28;45332;-68
2023/03/20 06:20:18;;;;;;;0.80;0.70;;;14.40;51.80;;;;;;5066246;28;45250;-67
2023/03/20 06:22:45;;;;;;;0.65;0.65;;;14.40;51.80;;;;;;5065764;28;45533;-67
2023/03/20 06:25:12;;;;;;;0.55;0.55;;;14.40;51.80;;;;;;5065602;28;45332;-67
2023/03/20 06:27:39;;;;;;;0.45;0.45;;;14.40;51.80;;;;;;5065980;28;45288;-67
2023/03/20 06:30:07;;;;;;;0.70;0.57;;;14.40;51.80;;;;;;5066226;28;45241;-67
2023/03/20 06:32:35;;;;;;;0.57;0.50;;;14.40;51.80;;;;;;5065575;28;46327;-67
2023/03/20 06:35:04;;;;;;;0.35;0.35;;;14.40;51.80;;;;;;5063080;28;45429;-67
2023/03/20 06:37:31;;;;;;;0.50;0.50;;;14.40;51.80;;;;;;5065940;28;45189;-67
2023/03/20 06:39:58;;;;;;;0.50;0.50;;;14.30;51.70;;;;;;5066054;28;45260;-67
2023/03/20 06:42:25;;;;;;;0.52;0.52;;;14.40;51.80;;;;;;5065333;28;45463;-67
2023/03/20 06:44:52;;;;;;;0.57;0.57;;;14.40;51.80;;;;;;5065676;28;45326;-67
2023/03/20 06:47:19;;;;;;;0.47;0.47;;;14.40;51.70;;;;;;5065573;28;45320;-67
2023/03/20 06:49:47;;;;;;;0.28;0.28;;;14.40;51.70;;;;;;5065855;28;45494;-67
2023/03/20 06:52:16;;;;;;;0.68;0.50;;;14.40;51.70;;;;;;5065280;28;47036;-67
2023/03/20 06:54:43;;;;;;;0.40;0.40;;;14.40;51.60;;;;;;5065467;28;45420;-67
2023/03/20 06:57:10;;;;;;;0.43;0.43;;;14.40;51.60;;;;;;5065730;28;45415;-67
2023/03/20 06:59:37;;;;;;;1.60;0.65;;;14.40;51.60;;;;;;5065709;28;45620;-66
2023/03/20 07:02:04;;;;;;;0.82;0.60;;;14.40;51.60;;;;;;5064888;28;46379;-67
2023/03/20 07:04:32;;;;;;;0.55;0.45;;;14.40;51.60;;;;;;5065196;28;45253;-67
2023/03/20 07:07:00;;;;;;;0.47;0.43;;;14.40;51.60;;;;;;5065359;28;45229;-67
2023/03/20 07:09:27;;;;;;;0.47;0.47;;;14.40;51.60;;;;;;5065608;28;45196;-67
2023/03/20 07:11:54;;;;;;;0.52;0.52;;;14.40;51.60;;;;;;5064905;28;46670;-67
2023/03/20 07:14:21;;;;;;;0.60;0.60;;;14.40;51.60;;;;;;5064986;28;45377;-66
2023/03/20 07:16:48;;;;;;;1.83;0.50;;;14.40;51.70;;;;;;5065160;28;45349;-66
2023/03/20 07:19:15;;;;;;;1.23;0.60;;;14.40;51.70;;;;;;5065039;28;45443;-66
2023/03/20 07:21:42;;;;;;;1.35;0.50;;;14.40;51.70;;;;;;5064734;28;46454;-67
2023/03/20 07:24:10;;;;;;;0.50;0.50;;;14.40;51.70;;;;;;5063948;28;45392;-67
2023/03/20 07:26:38;;;;;;;0.68;0.68;;;14.40;51.70;;;;;;5064941;28;45337;-67
2023/03/20 07:29:05;;;;;;;0.60;0.60;;;14.40;51.70;;;;;;5065166;28;45380;-67
2023/03/20 07:31:32;;;;;;;1.23;0.55;;;14.40;51.60;;;;;;5064827;28;46440;-67
2023/03/20 07:33:59;;;;;;;0.60;0.57;;;14.40;51.70;;;;;;5064829;28;45262;-67
2023/03/20 07:36:25;;;;;;;0.60;0.60;;;14.40;51.70;;;;;;5064802;28;45340;-67
2023/03/20 07:38:52;;;;;;;0.50;0.50;;;14.40;51.70;;;;;;5065159;28;45381;-67
2023/03/20 07:41:21;;;;;;;0.52;0.52;;;14.40;51.70;;;;;;5064403;28;46462;-67
2023/03/20 07:43:47;;;;;;;0.30;0.30;;;14.40;51.70;;;;;;5064635;28;45203;-66
2023/03/20 07:46:14;;;;;;;0.40;0.40;;;14.40;52.30;;;;;;5064793;28;45387;-67
2023/03/20 07:48:41;;;;;;;2.17;0.52;;;14.50;51.80;;;;;;5064983;28;45217;-67
2023/03/20 07:51:08;;;;;;;0.38;0.38;;;14.50;51.70;;;;;;5064443;28;46400;-66
2023/03/20 07:53:35;;;;;;;0.80;0.70;;;14.50;51.70;;;;;;5064885;28;45341;-66
2023/03/20 07:56:02;;;;;;;0.57;0.52;;;14.50;51.70;;;;;;5064735;28;45142;-69
2023/03/20 07:58:30;;;;;;;0.80;0.50;;;14.50;51.70;;;;;;5064896;28;45134;-65
2023/03/20 08:00:57;;;;;;;0.60;0.60;;;14.50;51.70;;;;;;5064336;28;45427;-66
2023/03/20 08:03:24;;;;;;;0.38;0.38;;;14.50;51.60;;;;;;5064377;28;45469;-66
2023/03/20 08:05:51;;;;;;;0.63;0.63;;;14.50;51.60;;;;;;5064456;28;45256;-66
2023/03/20 08:08:23;;;;;;;1.33;0.68;;;14.50;51.60;;;;;;5064773;28;45367;-66
2023/03/20 08:10:50;;;;;;;0.60;0.60;;;14.50;51.50;;;;;;5064111;28;46389;-66
2023/03/20 08:13:17;;;;;;;0.70;0.60;;;14.50;51.40;;;;;;5061978;28;45419;-66
2023/03/20 08:15:46;;;;;;;0.65;0.65;;;14.50;51.40;;;;;;5064414;28;45223;-66
2023/03/20 08:18:13;;;;;;;0.60;0.60;;;14.50;51.40;;;;;;5064553;28;45295;-66
2023/03/20 08:20:40;;;;;;;0.85;0.57;;;14.50;51.50;;;;;;5064290;28;45345;-65
2023/03/20 08:23:07;;;;;;;1.30;0.88;;;14.50;51.40;;;;;;5064060;28;45210;-65
2023/03/20 08:25:34;;;;;;;0.60;0.60;;;14.50;51.30;;;;;;5064228;28;45215;-68
2023/03/20 08:28:01;;;;;;;0.98;0.80;;;14.60;51.40;;;;;;5064467;28;45257;-66
2023/03/20 08:30:28;;;;;;;0.82;0.70;;;14.60;51.30;;;;;;5064347;28;47530;-65
2023/03/20 08:32:57;;;;;;;0.63;0.63;;;14.60;51.20;;;;;;5061498;28;45455;-65
2023/03/20 08:35:24;;;;;;;0.47;0.47;;;14.60;51.30;;;;;;5064506;28;45381;-66
2023/03/20 08:37:51;;;;;;;2.85;0.85;;;14.70;51.30;;;;;;5067911;28;45483;-66
2023/03/20 08:40:18;;;;;;;1.10;0.68;;;14.70;51.30;;;;;;5067487;28;46712;-66
2023/03/20 08:42:45;;;;;;;0.60;0.50;;;14.70;51.10;;;;;;5067604;28;45502;-66
2023/03/20 08:45:12;;;;;;;0.90;0.68;;;14.60;51.00;;;;;;5067660;28;45218;-66
2023/03/20 08:47:39;;;;;;;0.75;0.75;;;14.70;51.00;;;;;;5067748;28;45286;-66
2023/03/20 08:50:08;;;;;;;0.60;0.60;;;14.70;51.10;;;;;;5067313;28;45396;-66
2023/03/20 08:52:35;;;;;;;2.40;0.90;;;14.70;51.20;;;;;;5067250;28;45341;-66
2023/03/20 08:55:02;;;;;;;1.75;0.65;;;14.70;51.10;;;;;;5067433;28;45245;-66
2023/03/20 08:57:29;;;;;;;0.70;0.70;;;14.70;51.00;;;;;;5067714;28;45380;-66
2023/03/20 08:59:56;;;;;;;0.75;0.75;;;14.80;50.90;;;;;;5067043;28;45431;-66
2023/03/20 09:02:22;;;;;;;0.90;0.90;;;14.80;50.80;;;;;;5067034;28;45371;-66
2023/03/20 09:04:49;;;;;;;1.70;0.90;;;14.80;50.90;;;;;;5067411;28;45297;-67
2023/03/20 09:07:18;;;;;;;1.05;0.80;;;14.80;50.80;;;;;;5067377;28;45294;-67
2023/03/20 09:09:45;;;;;;;1.23;0.85;;;14.80;50.90;;;;;;5066956;28;46716;-67
2023/03/20 09:12:12;;;;;;;0.75;0.73;;;14.90;50.90;;;;;;5066876;28;45453;-66
2023/03/20 09:14:38;;;;;;;2.30;0.90;;;14.90;50.90;;;;;;5067156;28;45497;-66
2023/03/20 09:17:05;;;;;;;0.95;0.70;;;14.90;51.40;;;;;;5066886;28;45616;-66
2023/03/20 09:19:32;;;;;;;0.98;0.77;;;14.90;50.80;;;;;;5066851;28;45217;-66
2023/03/20 09:21:59;;;;;;;3.63;0.90;;;14.90;50.90;;;;;;5066951;28;45256;-66
2023/03/20 09:24:28;;;;;;;1.00;0.90;;;15.00;51.00;;;;;;5066856;28;45368;-65
2023/03/20 09:26:55;;;;;;;2.15;1.20;;;15.00;51.00;;;;;;5067218;28;45354;-66
2023/03/20 09:29:22;;;;;;;0.90;0.90;;;15.00;51.30;;;;;;5066733;28;47095;-66
2023/03/20 09:31:48;;;;;;;1.00;0.90;;;15.00;51.40;;;;;;5066671;28;45288;-66
2023/03/20 09:34:15;;;;;;;1.20;1.10;;;15.00;51.70;;;;;;5067009;28;45285;-66
2023/03/20 09:36:42;;;;;;;1.08;0.90;;;15.00;51.10;;;;;;5066893;28;45395;-66
2023/03/20 09:39:09;;;;;;;1.30;0.98;;;15.00;51.30;;;;;;5066509;28;46396;-66
2023/03/20 09:41:37;;;;;;;1.75;1.10;;;15.00;51.30;;;;;;5066583;28;45284;-65
2023/03/20 09:44:10;;;;;;;1.58;1.10;;;15.10;51.50;;;;;;5066596;28;45187;-66
2023/03/20 09:46:48;;;;;;;1.95;1.17;;;15.10;51.20;;;;;;5066395;28;45392;-66
2023/03/20 09:49:19;;;;;;;2.05;0.98;;;15.10;51.10;;;;;;5066392;28;45463;-67
2023/03/20 09:51:48;;;;;;;3.03;1.25;;;15.10;51.10;;;;;;5066358;28;45273;-66
2023/03/20 09:54:18;;;;;;;2.67;1.23;;;15.10;51.10;;;;;;5066694;28;45191;-66
2023/03/20 09:56:46;;;;;;;1.88;1.13;;;15.10;51.20;;;;;;5066720;28;45394;-66
2023/03/20 09:59:14;;;;;;;3.15;1.38;;;15.10;51.00;;;;;;5066119;28;46355;-66
2023/03/20 10:01:44;;;;;;;6.55;1.23;;;15.20;51.10;;;;;;5063711;28;45415;-66
2023/03/20 10:04:11;;;;;;;3.97;1.90;;;15.20;51.00;;;;;;5066442;28;45371;-66
2023/03/20 10:06:38;;;;;;;2.75;1.33;;;15.30;51.30;;;;;;5066819;28;45285;-66
2023/03/20 10:09:11;;;;;;;2.08;1.45;;;15.30;51.00;;;;;;5065872;28;46675;-66
2023/03/20 10:11:59;;;;;;;2.78;1.40;;;15.40;51.00;;;;;;5064774;28;45290;-66
2023/03/20 10:14:28;;;;;;;2.47;1.50;;;15.40;51.00;;;;;;5066079;28;45265;-66
2023/03/20 10:17:12;;;;;;;7.53;2.00;;;15.50;51.00;;;;;;5066332;28;45594;-66
2023/03/20 10:19:43;;;;;;;5.47;1.75;;;15.50;51.00;;;;;;5082498;28;47433;-70
2023/03/20 10:22:15;;;;;;;4.60;2.08;;;15.60;51.10;;;;;;5071811;27;45313;-70
2023/03/20 10:24:44;;;;;;;3.97;1.98;;;15.60;51.20;;;;;;5066062;28;45360;-71
2023/03/20 10:27:17;;;;;;;4.00;1.50;;;15.60;51.20;;;;;;5082620;28;45138;-72
2023/03/20 10:29:48;;;;;;;6.72;1.90;;;15.60;51.20;;;;;;5087030;27;45405;-67
2023/03/20 10:32:18;;;;;;;4.57;1.88;;;15.60;51.60;;;;;;5086685;27;45323;-72
2023/03/20 10:34:51;;;;;;;6.63;1.88;;;15.60;51.50;;;;;;5086451;27;45261;-63
2023/03/20 10:37:31;;;;;;;3.03;1.90;;;15.60;51.50;;;;;;5086689;27;45456;-70
2023/03/20 10:40:04;;;;;;;8.38;2.33;;;15.60;51.50;;;;;;5085271;27;46667;-67
2023/03/20 10:42:33;;;;;;;9.80;2.35;;;15.70;51.70;;;;;;5086256;27;45392;-67
2023/03/20 10:45:02;;;;;;;3.33;2.40;;;15.70;51.90;;;;;;5085768;27;45336;-66
2023/03/20 10:47:30;;;;;;;5.55;2.15;;;15.70;52.00;;;;;;5086714;27;45397;-67
2023/03/20 10:49:58;;;;;;;5.28;2.40;;;15.70;52.60;;;;;;5085503;27;46491;-65
2023/03/20 10:52:26;;;;;;;2.67;2.03;;;15.70;52.00;;;;;;5084313;27;45475;-68
2023/03/20 10:54:54;;;;;;;6.63;2.33;;;15.70;52.10;;;;;;5079456;27;45285;-67
2023/03/20 10:57:22;;;;;;;7.68;2.72;;;15.70;52.10;;;;;;5077410;28;45123;-68
2023/03/20 10:59:51;;;;;;;9.73;2.50;;;15.70;52.10;;;;;;5085007;27;46951;-65
2023/03/20 11:02:20;;;;;;;3.47;2.05;;;15.80;52.20;;;;;;5086110;27;45319;-72
2023/03/20 11:04:47;;;;;;;8.88;2.10;;;15.80;52.20;;;;;;5086979;27;45261;-69
2023/03/20 11:07:18;;;;;;;5.60;2.42;;;15.70;52.20;;;;;;5085538;27;45361;-66
2023/03/20 11:09:45;;;;;;;3.13;1.92;;;15.80;52.30;;;;;;5085663;27;45430;-66
2023/03/20 11:12:16;;;;;;;9.02;2.20;;;15.80;52.30;;;;;;5085376;27;45337;-67
2023/03/20 11:14:43;;;;;;;5.90;1.90;;;15.80;52.40;;;;;;5085410;27;45343;-66
2023/03/20 11:17:11;;;;;;;3.72;2.03;;;15.80;52.30;;;;;;5085458;27;45114;-67
2023/03/20 11:19:39;;;;;;;5.43;1.73;;;15.90;52.30;;;;;;5085325;27;45457;-66
2023/03/20 11:22:14;;;;;;;3.10;2.22;;;15.90;52.20;;;;;;5085243;27;45324;-66
2023/03/20 11:24:41;;;;;;;6.70;2.15;;;16.00;52.20;;;;;;5083701;27;45553;-67
2023/03/20 11:27:09;;;;;;;4.65;2.65;;;16.00;52.10;;;;;;5085289;27;45310;-67
2023/03/20 11:29:36;;;;;;;2.95;2.00;;;16.00;52.10;;;;;;5069229;28;45557;-68
2023/03/20 11:32:07;;;;;;;3.63;2.25;;;16.00;52.10;;;;;;5085469;27;45567;-72
2023/03/20 11:34:39;;;;;;;3.42;2.10;;;16.10;52.00;;;;;;5085737;27;45363;-71
2023/03/20 11:37:07;;;;;;;6.88;2.38;;;16.10;51.90;;;;;;5066661;28;45459;-68
2023/03/20 11:39:36;;;;;;;3.72;1.90;;;16.10;52.00;;;;;;5078788;28;45387;-72
2023/03/20 11:42:03;;;;;;;4.90;1.83;;;16.10;52.00;;;;;;5085175;27;45312;-65
2023/03/20 11:44:30;;;;;;;5.65;2.10;;;16.10;52.00;;;;;;5084943;27;45272;-69
2023/03/20 11:46:58;;;;;;;3.97;1.70;;;16.10;52.00;;;;;;5085509;27;45384;-66
2023/03/20 11:49:26;;;;;;;3.08;1.80;;;16.10;52.00;;;;;;5083501;27;45385;-69
2023/03/20 11:51:56;;;;;;;3.55;2.15;;;16.10;52.00;;;;;;5083689;27;45428;-69
2023/03/20 11:54:25;;;;;;;4.50;2.05;;;16.10;52.00;;;;;;5084891;27;45271;-67
2023/03/20 11:56:53;;;;;;;2.97;2.10;;;16.10;52.00;;;;;;5085012;27;45376;-69
2023/03/20 11:59:20;;;;;;;4.45;1.80;;;16.10;52.10;;;;;;5085490;27;46598;-73
2023/03/20 12:01:51;;;;;;;8.45;2.03;;;16.20;52.20;;;;;;5085385;27;45384;-72
2023/03/20 12:04:18;;;;;;;4.38;1.80;;;16.20;52.10;;;;;;5085377;27;45551;-69
2023/03/20 12:06:52;;;;;;;4.25;2.10;;;16.20;52.10;;;;;;5082690;27;45409;-66
2023/03/20 12:09:37;;;;;;;5.32;2.00;;;16.20;52.10;;;;;;5084954;27;46225;-66
2023/03/20 12:12:08;;;;;;;2.45;1.80;;;16.20;52.10;;;;;;5086904;28;45339;-69
2023/03/20 12:14:42;;;;;;;5.18;2.03;;;16.30;52.10;;;;;;5088733;27;45283;-65
2023/03/20 12:17:35;;;;;;;5.10;1.75;;;16.30;52.20;;;;;;5088399;27;45378;-65
2023/03/20 12:20:05;;;;;;;7.82;2.00;;;16.30;52.10;;;;;;5088453;27;45750;-65
2023/03/20 12:22:34;;;;;;;5.05;1.83;;;16.40;52.20;;;;;;5089101;27;45640;-67
2023/03/20 12:25:08;;;;;;;2.17;1.80;;;16.40;52.20;;;;;;5088347;27;45249;-67
2023/03/20 12:27:36;;;;;;;5.28;2.10;;;16.40;52.10;;;;;;5088173;28;45470;-66
2023/03/20 12:30:05;;;;;;;3.22;1.58;;;16.40;52.10;;;;;;5087784;27;45512;-65
2023/03/20 12:32:36;;;;;;;3.85;1.75;;;16.40;52.10;;;;;;5087920;27;45637;-68
2023/03/20 12:35:04;;;;;;;4.60;1.90;;;16.50;52.10;;;;;;5087984;27;45346;-68
2023/03/20 12:37:34;;;;;;;7.65;2.00;;;16.50;52.00;;;;;;5087959;27;45540;-65
2023/03/20 12:40:03;;;;;;;5.97;1.95;;;16.50;52.00;;;;;;5080672;27;46326;-67
2023/03/20 12:42:37;;;;;;;3.95;1.80;;;16.50;52.00;;;;;;5068778;27;45391;-67
2023/03/20 12:45:08;;;;;;;2.88;1.58;;;16.60;52.00;;;;;;5067519;28;45272;-67
2023/03/20 12:47:53;;;;;;;2.75;2.10;;;16.60;52.00;;;;;;5067523;28;45431;-72
2023/03/20 12:50:25;;;;;;;3.17;1.83;;;16.70;51.90;;;;;;5067631;28;47583;-67
2023/03/20 12:52:54;;;;;;;4.20;2.00;;;16.70;51.80;;;;;;5065873;28;45293;-67
2023/03/20 12:55:32;;;;;;;4.00;1.70;;;16.80;51.70;;;;;;5066945;28;45344;-68
2023/03/20 12:58:06;;;;;;;2.90;1.42;;;16.80;51.60;;;;;;5068087;28;45266;-67